Terminal Aerodrome Forecast
Issued by NWS Wakefield, VA

Home | Current Version | Previous Version | Text Only | Print | Product List | Glossary On
Versions: 1 2 3 4 5 6 7 8 9 10 11 12 13 14 15
000
FTUS41 KAKQ 231500 AAA
TAFRIC
TAF AMD
KRIC 231500Z 2315/2412 05006KT P6SM BKN020 OVC060
      TEMPO 2315/2317 6SM -RA BKN015
     FM231700 07007KT P6SM BKN030
     FM240000 06005KT P6SM BKN025=

USA.gov is the U.S. government's official web portal to all federal, state and local government web resources and services.